createdAt,value
2019-02-09T00:00:22.269Z,16.81
2019-02-09T00:06:17.290Z,22.54
2019-02-09T00:12:12.291Z,12.72
2019-02-09T00:18:07.307Z,10.74
2019-02-09T00:24:02.307Z,8.58
2019-02-09T00:29:57.305Z,9.27
2019-02-09T00:35:52.303Z,8.52
2019-02-09T00:41:47.330Z,9.47
2019-02-09T00:47:42.329Z,10.13
2019-02-09T00:53:37.315Z,12.6
2019-02-09T00:59:32.313Z,13.1
2019-02-09T01:05:27.333Z,8.68
2019-02-09T01:11:22.337Z,8.25
2019-02-09T01:17:17.374Z,9.51
2019-02-09T01:23:12.353Z,9.94
2019-02-09T01:29:07.350Z,10.46
2019-02-09T01:35:02.323Z,12.43
2019-02-09T01:40:57.399Z,13.64
2019-02-09T01:46:52.331Z,25.33
2019-02-09T01:52:47.377Z,11.4
2019-02-09T01:58:42.343Z,11.14
2019-02-09T02:04:37.365Z,13
2019-02-09T02:10:32.373Z,10.3
2019-02-09T02:16:27.353Z,12.76
2019-02-09T02:22:22.395Z,11.49
2019-02-09T02:28:17.350Z,11.51
2019-02-09T02:34:12.358Z,9.05
2019-02-09T02:40:07.354Z,10.68
2019-02-09T02:46:02.414Z,11.98
2019-02-09T02:51:57.366Z,9.57
2019-02-09T02:57:52.373Z,10.01
2019-02-09T03:03:47.473Z,9.57
2019-02-09T03:09:42.420Z,9.08
2019-02-09T03:15:37.399Z,9.52
2019-02-09T03:21:32.390Z,9.4
2019-02-09T03:27:27.413Z,8.88
2019-02-09T03:33:22.408Z,8.85
2019-02-09T03:39:17.390Z,8.88
2019-02-09T03:45:12.443Z,8.69
2019-02-09T03:51:07.419Z,8.84
2019-02-09T03:57:02.376Z,9.61
2019-02-09T04:02:57.400Z,10.52
2019-02-09T04:08:52.425Z,9.85
2019-02-09T04:14:47.477Z,9.89
2019-02-09T04:20:42.427Z,9.65
2019-02-09T04:26:37.455Z,9.01
2019-02-09T04:32:32.407Z,9.48
2019-02-09T04:38:27.432Z,9.19
2019-02-09T04:44:22.445Z,9.41
2019-02-09T04:50:17.450Z,10.14
2019-02-09T04:56:12.437Z,9.85
2019-02-09T05:02:07.441Z,11.18
2019-02-09T05:08:02.470Z,9.06
2019-02-09T05:13:57.486Z,10.4
2019-02-09T05:19:52.444Z,9.93
2019-02-09T05:25:47.440Z,9
2019-02-09T05:31:42.463Z,9.28
2019-02-09T05:37:37.459Z,10.15
2019-02-09T05:43:32.492Z,10.02
2019-02-09T05:49:27.488Z,10.46
2019-02-09T05:55:22.517Z,13.34
2019-02-09T06:01:17.455Z,12.44
2019-02-09T06:07:12.506Z,9.48
2019-02-09T06:13:07.473Z,8.18
2019-02-09T06:19:02.471Z,8.82
2019-02-09T06:24:57.485Z,10.42
2019-02-09T06:30:52.473Z,9.67
2019-02-09T06:36:47.507Z,9.9
2019-02-09T06:42:42.498Z,9.13
2019-02-09T06:48:37.509Z,9.38
2019-02-09T06:54:32.517Z,9.75
2019-02-09T07:00:27.487Z,9.91
2019-02-09T07:06:22.483Z,24.8
2019-02-09T07:12:17.518Z,11.56
2019-02-09T07:18:12.492Z,19.92
2019-02-09T07:24:07.554Z,16.67
2019-02-09T07:30:02.507Z,10.53
2019-02-09T07:35:57.563Z,10.12
2019-02-09T07:41:52.555Z,10.68
2019-02-09T07:47:47.516Z,10.93
2019-02-09T07:53:42.531Z,15.95
2019-02-09T07:59:37.537Z,21.13
2019-02-09T08:05:32.545Z,25.66
2019-02-09T08:11:27.550Z,25.88
2019-02-09T08:17:22.532Z,23.58
2019-02-09T08:23:17.525Z,21.95
2019-02-09T08:29:12.538Z,18.04
2019-02-09T08:35:07.601Z,17.51
2019-02-09T08:41:02.550Z,18.88
2019-02-09T08:46:57.558Z,16.47
2019-02-09T08:52:52.594Z,19.3
2019-02-09T08:58:47.546Z,17.01
2019-02-09T09:04:42.593Z,16.16
2019-02-09T09:10:37.549Z,16.51
2019-02-09T09:16:32.563Z,13.19
2019-02-09T09:22:27.553Z,12.36
2019-02-09T09:28:22.593Z,12.63
2019-02-09T09:34:17.596Z,12.85
2019-02-09T09:40:12.574Z,13.11
2019-02-09T09:46:07.560Z,13.01
2019-02-09T09:52:02.655Z,13
2019-02-09T09:57:57.579Z,13.41
2019-02-09T10:03:52.598Z,15.05
2019-02-09T10:09:47.605Z,15.18
2019-02-09T10:15:42.584Z,15.55
2019-02-09T10:21:37.649Z,18.54
2019-02-09T10:27:32.598Z,17.62
2019-02-09T10:33:27.601Z,20.98
2019-02-09T10:39:22.611Z,22.81
2019-02-09T10:45:17.613Z,24.64
2019-02-09T10:51:12.625Z,29.84
2019-02-09T10:57:07.606Z,28.56
2019-02-09T11:03:02.641Z,29.08
2019-02-09T11:08:57.643Z,27.02
2019-02-09T11:14:52.687Z,24.99
2019-02-09T11:20:47.645Z,21.62
2019-02-09T11:26:42.638Z,21.77
2019-02-09T11:32:37.631Z,22.3
2019-02-09T11:38:32.646Z,23.2
2019-02-09T11:44:27.635Z,21.57
2019-02-09T11:50:22.680Z,18.71
2019-02-09T11:56:17.655Z,25.08
2019-02-09T12:02:12.723Z,24.62
2019-02-09T12:08:07.678Z,23.28
2019-02-09T12:14:02.659Z,24.55
2019-02-09T12:19:57.658Z,24.23
2019-02-09T12:25:52.671Z,22.08
2019-02-09T12:31:47.676Z,20.85
2019-02-09T12:37:42.698Z,21.76
2019-02-09T12:43:37.687Z,20.49
2019-02-09T12:49:32.687Z,21.27
2019-02-09T12:55:27.729Z,21.39
2019-02-09T13:01:22.703Z,19.9
2019-02-09T13:07:17.686Z,21.17
2019-02-09T13:13:12.689Z,20.67
2019-02-09T13:19:07.711Z,19.15
2019-02-09T13:25:02.708Z,20.55
2019-02-09T13:30:57.705Z,19.44
2019-02-09T13:36:52.704Z,19.52
2019-02-09T13:42:47.717Z,18.7
2019-02-09T13:48:42.709Z,18.59
2019-02-09T13:54:37.717Z,17.71
2019-02-09T14:00:32.758Z,17.42
2019-02-09T14:06:27.761Z,17.43
2019-02-09T14:12:22.753Z,19.44
2019-02-09T14:18:17.745Z,16.72
2019-02-09T14:24:12.775Z,17.29
2019-02-09T14:30:07.726Z,17.53
2019-02-09T14:36:02.749Z,17.16
2019-02-09T14:41:57.733Z,18.7
2019-02-09T14:47:52.750Z,17.44
2019-02-09T14:53:47.731Z,18.56
2019-02-09T14:59:42.807Z,19.55
2019-02-09T15:05:37.759Z,19.16
2019-02-09T15:11:32.749Z,19.01
2019-02-09T15:17:27.757Z,18.42
2019-02-09T15:23:22.751Z,18.97
2019-02-09T15:29:17.780Z,20.25
2019-02-09T15:35:12.761Z,20.46
2019-02-09T15:41:07.752Z,21.33
2019-02-09T15:47:02.785Z,22.87
2019-02-09T15:52:57.798Z,22.5
2019-02-09T15:58:52.771Z,23.29
2019-02-09T16:04:47.781Z,22.79
2019-02-09T16:10:42.782Z,21.49
2019-02-09T16:16:37.788Z,25.21
2019-02-09T16:22:32.789Z,24.66
2019-02-09T16:28:27.800Z,23.01
2019-02-09T16:34:25.429Z,23.02
2019-02-09T16:40:17.816Z,24.58
2019-02-09T16:46:12.826Z,25.12
2019-02-09T16:52:07.805Z,27.42
2019-02-09T16:58:02.790Z,27.92
2019-02-09T17:03:57.844Z,27.19
2019-02-09T17:09:52.836Z,27.42
2019-02-09T17:15:47.822Z,25.05
2019-02-09T17:21:42.825Z,25.83
2019-02-09T17:27:37.817Z,27.09
2019-02-09T17:33:32.830Z,26.72
2019-02-09T17:39:27.827Z,28.23
2019-02-09T17:45:22.829Z,27.54
2019-02-09T17:51:17.869Z,28.75
2019-02-09T17:57:12.835Z,29.48
2019-02-09T18:03:07.842Z,28.06
2019-02-09T18:09:02.846Z,32.92
2019-02-09T18:14:57.901Z,37.25
2019-02-09T18:20:52.971Z,38.18
2019-02-09T18:26:47.864Z,35.07
2019-02-09T18:32:42.861Z,31.72
2019-02-09T18:38:37.925Z,31.51
2019-02-09T18:44:32.863Z,30.62
2019-02-09T18:50:27.860Z,34.17
2019-02-09T18:56:22.855Z,33.74
2019-02-09T19:02:17.871Z,36.85
2019-02-09T19:08:12.865Z,32.59
2019-02-09T19:14:07.926Z,32.21
2019-02-09T19:20:02.905Z,36.68
2019-02-09T19:25:57.883Z,37.08
2019-02-09T19:31:52.953Z,38.55
2019-02-09T19:37:47.894Z,38.66
2019-02-09T19:43:42.928Z,39.64
2019-02-09T19:49:37.904Z,39.56
2019-02-09T19:55:32.912Z,38.59
2019-02-09T20:01:27.953Z,38.52
2019-02-09T20:07:22.917Z,39.58
2019-02-09T20:13:17.944Z,43.99
2019-02-09T20:19:12.949Z,47.03
2019-02-09T20:25:07.918Z,53.56
2019-02-09T20:31:02.959Z,49.78
2019-02-09T20:36:57.932Z,50.75
2019-02-09T20:42:52.945Z,46.41
2019-02-09T20:48:47.917Z,46.5
2019-02-09T20:54:42.941Z,44.82
2019-02-09T21:00:37.930Z,44.28
2019-02-09T21:06:32.940Z,44.37
2019-02-09T21:12:27.930Z,43.83
2019-02-09T21:18:22.962Z,44.98
2019-02-09T21:24:17.986Z,39.03
2019-02-09T21:30:12.960Z,37.09
2019-02-09T21:36:07.954Z,31.48
2019-02-09T21:42:02.964Z,38.08
2019-02-09T21:47:57.973Z,40.45
2019-02-09T21:53:52.968Z,41.99
2019-02-09T21:59:47.969Z,44.96
2019-02-09T22:05:43.039Z,49.46
2019-02-09T22:11:38.027Z,48.43
2019-02-09T22:17:33.013Z,44.98
2019-02-09T22:23:27.998Z,42.89
2019-02-09T22:29:22.966Z,43.16
2019-02-09T22:35:18.017Z,42.67
2019-02-09T22:41:13.005Z,42.69
2019-02-09T22:47:07.989Z,43.03
2019-02-09T22:53:02.986Z,42.74
2019-02-09T22:58:57.995Z,44.43
2019-02-09T23:04:52.990Z,44.97
2019-02-09T23:10:48.001Z,40.52
2019-02-09T23:16:43.004Z,40.35
2019-02-09T23:22:38.029Z,40.24
2019-02-09T23:28:33.010Z,37.84
2019-02-09T23:34:28.087Z,41.25
2019-02-09T23:40:23.022Z,42.09
2019-02-09T23:46:18.038Z,42.62
2019-02-09T23:52:13.073Z,42.28
2019-02-09T23:58:08.023Z,40.4
